EXS35AJ EGSS-LGSK
Flight info
| Callsign | EXS35AJ |
|---|---|
| Flight time | 2h 59m |
| Altitude | 37000 |
| Route | CLN M84 KONAN UL607 KOK DCT REMBA UL607 MATUG DCT AMASI DCT BOMBI DCT DETEV DCT DINKU M867 XERUM DCT BAVAX DCT RADIZ DCT NIPEL DCT ABISO DCT NEMEK DCT MEDUX UM867 KOGAT DCT ERANA UL737 TSL |
| Aircraft | B738/M-SDE2E3FGHIRWXY/LB1 |
Departure
| Time | 2026-05-04 07:22 |
|---|---|
| Airport | London Stansted Airport (EGSS) |
Arrival
| Time | 2026-05-04 10:22 |
|---|---|
| Airport | Skiathos Island National Airport (LGSK) |
| Time | Latitude | Longitude | Altitude | Speed | Heading |
|---|---|---|---|---|---|
| 2026-05-04 06:48 | 51.88976 | 0.25164 | 333 ft | 0 kts | 63° |
| 2026-05-04 07:12 | 51.88917 | 0.25113 | 331 ft | 0 kts | 312° |
| 2026-05-04 07:15 | 51.88920 | 0.25108 | 331 ft | 4 kts | 312° |
| 2026-05-04 07:16 | 51.88968 | 0.25000 | 332 ft | 18 kts | 289° |
| 2026-05-04 07:16 | 51.89026 | 0.24820 | 334 ft | 11 kts | 289° |
| 2026-05-04 07:16 | 51.88994 | 0.24710 | 335 ft | 11 kts | 224° |
| 2026-05-04 07:16 | 51.88930 | 0.24613 | 333 ft | 16 kts | 223° |
| 2026-05-04 07:17 | 51.88815 | 0.24438 | 333 ft | 28 kts | 222° |
| 2026-05-04 07:17 | 51.88668 | 0.24215 | 332 ft | 28 kts | 219° |
| 2026-05-04 07:17 | 51.88519 | 0.23995 | 333 ft | 29 kts | 226° |
| 2026-05-04 07:17 | 51.88417 | 0.23846 | 336 ft | 11 kts | 223° |
| 2026-05-04 07:18 | 51.88360 | 0.23759 | 336 ft | 11 kts | 223° |
| 2026-05-04 07:18 | 51.88300 | 0.23664 | 337 ft | 11 kts | 225° |
| 2026-05-04 07:18 | 51.88244 | 0.23582 | 339 ft | 10 kts | 222° |
| 2026-05-04 07:18 | 51.88191 | 0.23501 | 340 ft | 10 kts | 223° |
| 2026-05-04 07:19 | 51.88138 | 0.23421 | 341 ft | 10 kts | 222° |
| 2026-05-04 07:19 | 51.88087 | 0.23345 | 341 ft | 10 kts | 222° |
| 2026-05-04 07:19 | 51.88026 | 0.23258 | 340 ft | 12 kts | 222° |
| 2026-05-04 07:19 | 51.87958 | 0.23154 | 340 ft | 13 kts | 223° |
| 2026-05-04 07:20 | 51.87885 | 0.23044 | 340 ft | 13 kts | 223° |
| 2026-05-04 07:20 | 51.87829 | 0.22959 | 339 ft | 8 kts | 230° |
| 2026-05-04 07:20 | 51.87828 | 0.22869 | 339 ft | 6 kts | 306° |
| 2026-05-04 07:20 | 51.87857 | 0.22817 | 340 ft | 6 kts | 312° |
| 2026-05-04 07:22 | 51.89178 | 0.24499 | 390 ft | 161 kts | 42° |
| 2026-05-04 07:22 | 51.89973 | 0.25726 | 1095 ft | 159 kts | 41° |
| 2026-05-04 07:23 | 51.90783 | 0.26967 | 1711 ft | 168 kts | 40° |
| 2026-05-04 07:23 | 51.91624 | 0.28317 | 2229 ft | 177 kts | 55° |
| 2026-05-04 07:23 | 51.92004 | 0.30310 | 2581 ft | 198 kts | 85° |
| 2026-05-04 07:23 | 51.91686 | 0.32571 | 2992 ft | 218 kts | 115° |
| 2026-05-04 07:24 | 51.90919 | 0.34745 | 3506 ft | 230 kts | 119° |
| 2026-05-04 07:24 | 51.90122 | 0.37107 | 3946 ft | 248 kts | 116° |
| 2026-05-04 07:24 | 51.89335 | 0.39693 | 3978 ft | 262 kts | 114° |
| 2026-05-04 07:24 | 51.88554 | 0.42369 | 3984 ft | 265 kts | 114° |
| 2026-05-04 07:25 | 51.87766 | 0.45065 | 4035 ft | 264 kts | 114° |
| 2026-05-04 07:26 | 51.82888 | 0.64452 | 5805 ft | 273 kts | 87° |
| 2026-05-04 07:27 | 51.83010 | 0.67528 | 6179 ft | 280 kts | 85° |
| 2026-05-04 07:27 | 51.83187 | 0.70785 | 6457 ft | 302 kts | 85° |
| 2026-05-04 07:27 | 51.83359 | 0.74269 | 6732 ft | 320 kts | 86° |
| 2026-05-04 07:27 | 51.83516 | 0.77866 | 7005 ft | 323 kts | 86° |
| 2026-05-04 07:28 | 51.83658 | 0.81494 | 7283 ft | 325 kts | 87° |
| 2026-05-04 07:28 | 51.83791 | 0.85144 | 7564 ft | 327 kts | 87° |
| 2026-05-04 07:28 | 51.83924 | 0.88813 | 7842 ft | 329 kts | 87° |
| 2026-05-04 07:28 | 51.84058 | 0.92488 | 8111 ft | 328 kts | 87° |
| 2026-05-04 07:29 | 51.84193 | 0.96167 | 8384 ft | 330 kts | 87° |
| 2026-05-04 07:29 | 51.84327 | 0.99873 | 8664 ft | 333 kts | 87° |
| 2026-05-04 07:29 | 51.84457 | 1.03608 | 8945 ft | 335 kts | 87° |
| 2026-05-04 07:29 | 51.84587 | 1.07362 | 9221 ft | 336 kts | 87° |
| 2026-05-04 07:30 | 51.84581 | 1.11142 | 9496 ft | 337 kts | 96° |
| 2026-05-04 07:30 | 51.83991 | 1.14782 | 9764 ft | 338 kts | 118° |
| 2026-05-04 07:30 | 51.82536 | 1.17692 | 10046 ft | 328 kts | 141° |
| 2026-05-04 07:30 | 51.80728 | 1.19746 | 10331 ft | 314 kts | 150° |
| 2026-05-04 07:31 | 51.78847 | 1.21545 | 10604 ft | 316 kts | 151° |
| 2026-05-04 07:31 | 51.76956 | 1.23348 | 10874 ft | 316 kts | 150° |
| 2026-05-04 07:33 | 51.64626 | 1.35904 | 12780 ft | 300 kts | 160° |
| 2026-05-04 07:33 | 51.62612 | 1.36615 | 13056 ft | 298 kts | 178° |
| 2026-05-04 07:33 | 51.60548 | 1.36717 | 13333 ft | 298 kts | 181° |
| 2026-05-04 07:33 | 51.58475 | 1.36727 | 13602 ft | 300 kts | 181° |
| 2026-05-04 07:34 | 51.56390 | 1.36767 | 13875 ft | 301 kts | 180° |
| 2026-05-04 07:34 | 51.54302 | 1.36846 | 14150 ft | 302 kts | 180° |
| 2026-05-04 07:34 | 51.52201 | 1.36953 | 14421 ft | 304 kts | 179° |
| 2026-05-04 07:34 | 51.50068 | 1.37075 | 14703 ft | 314 kts | 179° |
| 2026-05-04 07:35 | 51.47821 | 1.37209 | 14980 ft | 332 kts | 178° |
| 2026-05-04 07:35 | 51.45472 | 1.37675 | 15246 ft | 352 kts | 168° |
| 2026-05-04 07:35 | 51.43156 | 1.39210 | 15517 ft | 372 kts | 149° |
| 2026-05-04 07:35 | 51.41167 | 1.41980 | 15796 ft | 391 kts | 132° |
| 2026-05-04 07:36 | 51.39448 | 1.45436 | 16251 ft | 402 kts | 128° |
| 2026-05-04 07:36 | 51.37779 | 1.48976 | 17069 ft | 402 kts | 128° |
| 2026-05-04 07:38 | 51.25530 | 1.74515 | 21546 ft | 428 kts | 131° |
| 2026-05-04 07:38 | 51.23700 | 1.78270 | 22108 ft | 432 kts | 131° |
| 2026-05-04 07:38 | 51.21852 | 1.82055 | 22662 ft | 436 kts | 132° |
| 2026-05-04 07:38 | 51.19991 | 1.85863 | 23258 ft | 439 kts | 132° |
| 2026-05-04 07:39 | 51.18107 | 1.89710 | 23805 ft | 442 kts | 132° |
| 2026-05-04 07:39 | 51.16257 | 1.93631 | 24323 ft | 447 kts | 129° |
| 2026-05-04 07:39 | 51.14630 | 1.97873 | 24812 ft | 456 kts | 121° |
| 2026-05-04 07:39 | 51.13402 | 2.02551 | 25333 ft | 464 kts | 112° |
| 2026-05-04 07:40 | 51.12631 | 2.07533 | 25884 ft | 470 kts | 104° |
| 2026-05-04 07:40 | 51.12159 | 2.12699 | 26349 ft | 476 kts | 100° |
| 2026-05-04 07:40 | 51.11843 | 2.17913 | 27003 ft | 476 kts | 98° |
| 2026-05-04 07:40 | 51.11597 | 2.23131 | 27654 ft | 475 kts | 98° |
| 2026-05-04 07:41 | 51.11374 | 2.28339 | 28326 ft | 473 kts | 98° |
| 2026-05-04 07:41 | 51.11152 | 2.33492 | 29095 ft | 467 kts | 98° |
| 2026-05-04 07:41 | 51.10919 | 2.38596 | 29838 ft | 462 kts | 99° |
| 2026-05-04 07:41 | 51.10670 | 2.43676 | 30379 ft | 462 kts | 99° |
| 2026-05-04 07:42 | 51.10403 | 2.48775 | 30789 ft | 463 kts | 100° |
| 2026-05-04 07:42 | 51.10122 | 2.53906 | 31308 ft | 461 kts | 100° |
| 2026-05-04 07:42 | 51.09835 | 2.58984 | 31822 ft | 459 kts | 100° |
| 2026-05-04 07:42 | 51.09450 | 2.64015 | 32189 ft | 458 kts | 104° |
| 2026-05-04 07:43 | 51.08045 | 2.74032 | 32226 ft | 472 kts | 111° |
| 2026-05-04 07:43 | 51.06196 | 2.84146 | 32675 ft | 479 kts | 112° |
| 2026-05-04 07:44 | 51.05239 | 2.89200 | 33077 ft | 479 kts | 112° |
| 2026-05-04 07:44 | 51.04285 | 2.94241 | 33531 ft | 477 kts | 112° |
| 2026-05-04 07:44 | 51.03333 | 2.99289 | 33902 ft | 477 kts | 112° |
| 2026-05-04 07:44 | 51.02389 | 3.04311 | 34259 ft | 477 kts | 112° |
| 2026-05-04 07:45 | 51.01450 | 3.09332 | 34587 ft | 477 kts | 112° |
| 2026-05-04 07:45 | 51.00509 | 3.14372 | 34881 ft | 478 kts | 112° |
| 2026-05-04 07:45 | 50.99571 | 3.19400 | 35124 ft | 477 kts | 111° |
| 2026-05-04 07:45 | 50.98639 | 3.24401 | 35361 ft | 476 kts | 111° |
| 2026-05-04 07:46 | 50.97695 | 3.29466 | 35588 ft | 476 kts | 111° |
| 2026-05-04 07:46 | 50.96760 | 3.34471 | 35827 ft | 474 kts | 111° |
| 2026-05-04 07:46 | 50.95831 | 3.39443 | 36066 ft | 472 kts | 111° |
| 2026-05-04 07:46 | 50.94898 | 3.44423 | 36282 ft | 471 kts | 111° |
| 2026-05-04 07:47 | 50.93969 | 3.49370 | 36544 ft | 470 kts | 111° |
| 2026-05-04 07:47 | 50.93037 | 3.54317 | 36775 ft | 470 kts | 110° |
| 2026-05-04 07:47 | 50.92101 | 3.59276 | 36959 ft | 471 kts | 110° |
| 2026-05-04 07:49 | 50.85494 | 3.93876 | 36970 ft | 468 kts | 111° |
| 2026-05-04 07:49 | 50.83592 | 4.03723 | 36970 ft | 467 kts | 112° |
| 2026-05-04 07:50 | 50.81683 | 4.13547 | 36974 ft | 469 kts | 112° |
| 2026-05-04 07:50 | 50.79761 | 4.23386 | 36976 ft | 468 kts | 112° |
| 2026-05-04 07:51 | 50.77839 | 4.33184 | 36980 ft | 469 kts | 112° |
| 2026-05-04 07:51 | 50.75904 | 4.42999 | 36975 ft | 467 kts | 112° |
| 2026-05-04 07:52 | 50.73964 | 4.52781 | 36964 ft | 469 kts | 112° |
| 2026-05-04 07:52 | 50.72014 | 4.62563 | 36976 ft | 469 kts | 112° |
| 2026-05-04 07:54 | 50.64110 | 5.01703 | 36974 ft | 469 kts | 113° |
| 2026-05-04 07:55 | 50.62094 | 5.11493 | 36963 ft | 469 kts | 113° |
| 2026-05-04 07:55 | 50.60081 | 5.21224 | 36980 ft | 469 kts | 113° |
| 2026-05-04 07:56 | 50.58051 | 5.30977 | 36992 ft | 470 kts | 113° |
| 2026-05-04 07:56 | 50.56017 | 5.40715 | 36984 ft | 468 kts | 113° |
| 2026-05-04 07:57 | 50.53976 | 5.50433 | 36991 ft | 470 kts | 113° |
| 2026-05-04 07:57 | 50.51918 | 5.60203 | 36986 ft | 469 kts | 112° |
| 2026-05-04 07:58 | 50.50244 | 5.70128 | 36992 ft | 473 kts | 107° |
| 2026-05-04 07:58 | 50.48969 | 5.80248 | 36983 ft | 473 kts | 105° |
| 2026-05-04 07:59 | 50.47748 | 5.90378 | 36976 ft | 475 kts | 106° |
| 2026-05-04 07:59 | 50.46482 | 6.00519 | 36966 ft | 475 kts | 106° |
| 2026-05-04 08:00 | 50.45180 | 6.10599 | 36960 ft | 474 kts | 106° |
| 2026-05-04 08:02 | 50.39738 | 6.51010 | 36969 ft | 474 kts | 106° |
| 2026-05-04 08:02 | 50.38338 | 6.61086 | 36969 ft | 473 kts | 106° |
| 2026-05-04 08:03 | 50.36930 | 6.71154 | 36971 ft | 473 kts | 107° |
| 2026-05-04 08:03 | 50.35520 | 6.81168 | 36969 ft | 472 kts | 107° |
| 2026-05-04 08:04 | 50.34104 | 6.91176 | 36971 ft | 472 kts | 107° |
| 2026-05-04 08:04 | 50.32674 | 7.01211 | 36974 ft | 472 kts | 107° |
| 2026-05-04 08:05 | 50.31231 | 7.11281 | 36982 ft | 472 kts | 107° |
| 2026-05-04 08:05 | 50.29782 | 7.21323 | 36974 ft | 471 kts | 107° |
| 2026-05-04 08:06 | 50.28332 | 7.31297 | 36975 ft | 473 kts | 107° |
| 2026-05-04 08:06 | 50.26872 | 7.41283 | 36980 ft | 473 kts | 107° |
| 2026-05-04 08:08 | 50.20948 | 7.81209 | 36990 ft | 472 kts | 107° |
| 2026-05-04 08:11 | 50.14133 | 8.26001 | 37000 ft | 472 kts | 107° |
| 2026-05-04 08:11 | 50.11821 | 8.40914 | 37005 ft | 473 kts | 107° |
| 2026-05-04 08:12 | 50.10272 | 8.50837 | 37005 ft | 472 kts | 107° |
| 2026-05-04 08:12 | 50.08714 | 8.60752 | 37003 ft | 473 kts | 107° |
| 2026-05-04 08:13 | 50.07144 | 8.70685 | 37001 ft | 472 kts | 108° |
| 2026-05-04 08:13 | 50.05381 | 8.80496 | 36999 ft | 469 kts | 113° |
| 2026-05-04 08:14 | 50.02856 | 8.89831 | 36999 ft | 466 kts | 119° |
| 2026-05-04 08:16 | 49.91376 | 9.25778 | 36998 ft | 467 kts | 120° |
| 2026-05-04 08:16 | 49.88501 | 9.34838 | 36998 ft | 467 kts | 120° |
| 2026-05-04 08:17 | 49.85634 | 9.43867 | 36998 ft | 468 kts | 120° |
| 2026-05-04 08:17 | 49.82578 | 9.52693 | 36999 ft | 464 kts | 127° |
| 2026-05-04 08:19 | 49.66833 | 9.76911 | 37004 ft | 456 kts | 142° |
| 2026-05-04 08:19 | 49.64488 | 9.80218 | 37008 ft | 456 kts | 142° |
| 2026-05-04 08:20 | 49.59815 | 9.86847 | 37012 ft | 456 kts | 141° |
| 2026-05-04 08:20 | 49.55168 | 9.93472 | 37014 ft | 456 kts | 141° |
| 2026-05-04 08:21 | 49.50513 | 10.00119 | 37014 ft | 457 kts | 141° |
| 2026-05-04 08:21 | 49.45868 | 10.06744 | 37019 ft | 457 kts | 141° |
| 2026-05-04 08:22 | 49.41219 | 10.13364 | 37019 ft | 456 kts | 141° |
| 2026-05-04 08:24 | 49.22357 | 10.39469 | 37016 ft | 455 kts | 148° |
| 2026-05-04 08:24 | 49.17046 | 10.44687 | 37016 ft | 452 kts | 153° |
| 2026-05-04 08:25 | 49.11604 | 10.49520 | 37014 ft | 453 kts | 153° |
| 2026-05-04 08:25 | 49.06150 | 10.54328 | 37009 ft | 453 kts | 153° |
| 2026-05-04 08:27 | 48.84473 | 10.73771 | 37008 ft | 453 kts | 151° |
| 2026-05-04 08:28 | 48.79447 | 10.79599 | 37010 ft | 459 kts | 140° |
| 2026-05-04 08:28 | 48.74970 | 10.86582 | 37010 ft | 462 kts | 135° |
| 2026-05-04 08:29 | 48.70710 | 10.93840 | 37021 ft | 462 kts | 134° |
| 2026-05-04 08:31 | 48.53565 | 11.22730 | 37022 ft | 463 kts | 135° |
| 2026-05-04 08:33 | 48.36165 | 11.51375 | 37020 ft | 464 kts | 135° |
| 2026-05-04 08:35 | 48.18196 | 11.79064 | 37030 ft | 463 kts | 141° |
| 2026-05-04 08:35 | 48.13392 | 11.85474 | 37028 ft | 463 kts | 141° |
| 2026-05-04 08:37 | 47.96626 | 12.08103 | 37040 ft | 464 kts | 140° |
| 2026-05-04 08:38 | 47.91843 | 12.14581 | 37039 ft | 464 kts | 140° |
| 2026-05-04 08:38 | 47.87080 | 12.21019 | 37062 ft | 464 kts | 140° |
| 2026-05-04 08:40 | 47.67939 | 12.46734 | 37079 ft | 463 kts | 140° |
| 2026-05-04 08:41 | 47.63150 | 12.53126 | 37101 ft | 464 kts | 140° |
| 2026-05-04 08:41 | 47.58372 | 12.59533 | 37092 ft | 464 kts | 140° |
| 2026-05-04 08:42 | 47.53634 | 12.65934 | 37103 ft | 463 kts | 140° |
| 2026-05-04 08:42 | 47.48841 | 12.72404 | 37102 ft | 463 kts | 140° |
| 2026-05-04 08:43 | 47.44075 | 12.78814 | 37124 ft | 463 kts | 140° |
| 2026-05-04 08:43 | 47.39320 | 12.85188 | 37126 ft | 463 kts | 140° |
| 2026-05-04 08:44 | 47.34529 | 12.91590 | 37125 ft | 464 kts | 140° |
| 2026-05-04 08:46 | 47.15395 | 13.16990 | 37135 ft | 452 kts | 140° |
| 2026-05-04 08:46 | 47.10747 | 13.23124 | 37145 ft | 451 kts | 140° |
| 2026-05-04 08:47 | 47.06050 | 13.29299 | 37153 ft | 453 kts | 140° |
| 2026-05-04 08:47 | 47.01366 | 13.35445 | 37160 ft | 452 kts | 140° |
| 2026-05-04 08:48 | 46.96665 | 13.41598 | 37156 ft | 453 kts | 140° |
| 2026-05-04 08:48 | 46.91961 | 13.47741 | 37144 ft | 453 kts | 140° |
| 2026-05-04 08:49 | 46.87261 | 13.53862 | 37137 ft | 453 kts | 140° |
| 2026-05-04 08:50 | 46.70752 | 13.75249 | 37140 ft | 453 kts | 140° |
| 2026-05-04 08:51 | 46.66045 | 13.81314 | 37134 ft | 452 kts | 140° |
| 2026-05-04 08:51 | 46.61330 | 13.87375 | 37134 ft | 452 kts | 140° |
| 2026-05-04 08:52 | 46.56601 | 13.93438 | 37128 ft | 454 kts | 140° |
| 2026-05-04 08:52 | 46.51854 | 13.99508 | 37125 ft | 454 kts | 140° |
| 2026-05-04 08:54 | 46.33558 | 14.24847 | 37116 ft | 450 kts | 136° |
| 2026-05-04 08:55 | 46.29144 | 14.31090 | 37105 ft | 442 kts | 136° |
| 2026-05-04 08:55 | 46.24711 | 14.37312 | 37093 ft | 447 kts | 136° |
| 2026-05-04 09:01 | 45.77379 | 15.02731 | 37097 ft | 452 kts | 137° |
| 2026-05-04 09:01 | 45.72812 | 15.08957 | 37097 ft | 451 kts | 137° |
| 2026-05-04 09:02 | 45.68269 | 15.15133 | 37096 ft | 452 kts | 137° |
| 2026-05-04 09:02 | 45.63698 | 15.21334 | 37097 ft | 451 kts | 137° |
| 2026-05-04 09:03 | 45.59097 | 15.27570 | 37102 ft | 462 kts | 136° |
| 2026-05-04 09:03 | 45.54668 | 15.34389 | 37108 ft | 473 kts | 130° |
| 2026-05-04 09:04 | 45.50526 | 15.41836 | 37104 ft | 483 kts | 127° |
| 2026-05-04 09:04 | 45.46595 | 15.49160 | 37104 ft | 489 kts | 127° |
| 2026-05-04 09:05 | 45.42442 | 15.56824 | 37101 ft | 489 kts | 127° |
| 2026-05-04 09:05 | 45.38248 | 15.64452 | 37101 ft | 488 kts | 128° |
| 2026-05-04 09:06 | 45.34021 | 15.72060 | 37108 ft | 489 kts | 128° |
| 2026-05-04 09:08 | 45.17091 | 16.02211 | 37090 ft | 490 kts | 128° |
| 2026-05-04 09:08 | 45.12847 | 16.09717 | 37092 ft | 490 kts | 128° |
| 2026-05-04 09:09 | 45.08589 | 16.17229 | 37094 ft | 489 kts | 128° |
| 2026-05-04 09:09 | 45.04334 | 16.24717 | 37090 ft | 488 kts | 128° |
| 2026-05-04 09:10 | 45.00066 | 16.32207 | 37091 ft | 490 kts | 128° |
| 2026-05-04 09:10 | 44.95796 | 16.39680 | 37095 ft | 490 kts | 128° |
| 2026-05-04 09:11 | 44.91523 | 16.47139 | 37096 ft | 490 kts | 128° |
| 2026-05-04 09:11 | 44.87238 | 16.54600 | 37103 ft | 490 kts | 128° |
| 2026-05-04 09:12 | 44.82947 | 16.62052 | 37105 ft | 491 kts | 128° |
| 2026-05-04 09:14 | 44.65714 | 16.91792 | 37125 ft | 492 kts | 128° |
| 2026-05-04 09:14 | 44.61384 | 16.99213 | 37137 ft | 492 kts | 128° |
| 2026-05-04 09:15 | 44.57056 | 17.06612 | 37148 ft | 493 kts | 128° |
| 2026-05-04 09:15 | 44.52710 | 17.14025 | 37154 ft | 494 kts | 128° |
| 2026-05-04 09:17 | 44.33040 | 17.47329 | 37155 ft | 495 kts | 128° |
| 2026-05-04 09:18 | 44.28634 | 17.54737 | 37152 ft | 496 kts | 128° |
| 2026-05-04 09:18 | 44.24209 | 17.62156 | 37150 ft | 496 kts | 128° |
| 2026-05-04 09:19 | 44.19799 | 17.69533 | 37153 ft | 496 kts | 129° |
| 2026-05-04 09:19 | 44.15378 | 17.76910 | 37155 ft | 496 kts | 128° |
| 2026-05-04 09:20 | 44.10963 | 17.84257 | 37159 ft | 495 kts | 128° |
| 2026-05-04 09:20 | 44.06548 | 17.91583 | 37155 ft | 497 kts | 128° |
| 2026-05-04 09:21 | 44.02113 | 17.98925 | 37156 ft | 496 kts | 128° |
| 2026-05-04 09:21 | 43.97676 | 18.06255 | 37153 ft | 498 kts | 128° |
| 2026-05-04 09:22 | 43.93230 | 18.13578 | 37151 ft | 497 kts | 128° |
| 2026-05-04 09:22 | 43.88778 | 18.20892 | 37153 ft | 497 kts | 128° |
| 2026-05-04 09:23 | 43.84305 | 18.28220 | 37154 ft | 497 kts | 128° |
| 2026-05-04 09:23 | 43.79850 | 18.35499 | 37153 ft | 496 kts | 128° |
| 2026-05-04 09:25 | 43.61982 | 18.64525 | 37166 ft | 497 kts | 128° |
| 2026-05-04 09:26 | 43.57470 | 18.71805 | 37165 ft | 498 kts | 128° |
| 2026-05-04 09:26 | 43.52964 | 18.79059 | 37161 ft | 497 kts | 128° |
| 2026-05-04 09:27 | 43.48473 | 18.86266 | 37174 ft | 498 kts | 128° |
| 2026-05-04 09:27 | 43.43966 | 18.93485 | 37176 ft | 497 kts | 128° |
| 2026-05-04 09:28 | 43.39490 | 19.00628 | 37177 ft | 491 kts | 128° |
| 2026-05-04 09:28 | 43.35028 | 19.07741 | 37183 ft | 493 kts | 128° |
| 2026-05-04 09:29 | 43.30560 | 19.14845 | 37183 ft | 493 kts | 128° |
| 2026-05-04 09:29 | 43.26087 | 19.21940 | 37181 ft | 493 kts | 128° |
| 2026-05-04 09:30 | 43.21589 | 19.29057 | 37185 ft | 493 kts | 128° |
| 2026-05-04 09:30 | 43.17074 | 19.36181 | 37181 ft | 493 kts | 128° |
| 2026-05-04 09:31 | 43.12577 | 19.43260 | 37184 ft | 493 kts | 128° |
| 2026-05-04 09:31 | 43.08076 | 19.50329 | 37184 ft | 494 kts | 128° |
| 2026-05-04 09:32 | 43.03571 | 19.57387 | 37188 ft | 494 kts | 128° |
| 2026-05-04 09:34 | 42.85482 | 19.85550 | 37176 ft | 495 kts | 128° |
| 2026-05-04 09:34 | 42.80954 | 19.92556 | 37166 ft | 493 kts | 128° |
| 2026-05-04 09:35 | 42.76418 | 19.99558 | 37155 ft | 495 kts | 128° |
| 2026-05-04 09:35 | 42.71917 | 20.06607 | 37147 ft | 495 kts | 127° |
| 2026-05-04 09:37 | 42.56744 | 20.31774 | 37151 ft | 476 kts | 126° |
| 2026-05-04 09:37 | 42.54648 | 20.35218 | 37160 ft | 476 kts | 126° |
| 2026-05-04 09:38 | 42.50393 | 20.42208 | 37155 ft | 486 kts | 126° |
| 2026-05-04 09:38 | 42.46082 | 20.49258 | 37151 ft | 484 kts | 126° |
| 2026-05-04 09:39 | 42.41791 | 20.56246 | 37153 ft | 485 kts | 126° |
| 2026-05-04 09:39 | 42.37491 | 20.63231 | 37155 ft | 484 kts | 126° |
| 2026-05-04 09:40 | 42.33157 | 20.70255 | 37153 ft | 486 kts | 126° |
| 2026-05-04 09:40 | 42.28839 | 20.77236 | 37147 ft | 484 kts | 126° |
| 2026-05-04 09:42 | 42.11572 | 21.04988 | 37138 ft | 487 kts | 127° |
| 2026-05-04 09:43 | 42.06882 | 21.11574 | 37151 ft | 488 kts | 133° |
| 2026-05-04 09:43 | 42.01912 | 21.17789 | 37146 ft | 490 kts | 134° |
| 2026-05-04 09:44 | 41.96886 | 21.23960 | 37150 ft | 490 kts | 134° |
| 2026-05-04 09:46 | 41.77021 | 21.48777 | 37130 ft | 488 kts | 133° |
| 2026-05-04 09:46 | 41.72064 | 21.54991 | 37138 ft | 488 kts | 133° |
| 2026-05-04 09:47 | 41.67121 | 21.61172 | 37132 ft | 488 kts | 133° |
| 2026-05-04 09:49 | 41.47289 | 21.85834 | 37125 ft | 488 kts | 134° |
| 2026-05-04 09:51 | 41.29898 | 22.07283 | 37128 ft | 486 kts | 134° |
| 2026-05-04 09:51 | 41.24935 | 22.13371 | 37137 ft | 487 kts | 134° |
| 2026-05-04 09:52 | 41.19964 | 22.19461 | 37130 ft | 486 kts | 134° |
| 2026-05-04 09:52 | 41.14990 | 22.25509 | 37121 ft | 488 kts | 135° |
| 2026-05-04 09:53 | 41.10870 | 22.30126 | 37123 ft | 487 kts | 137° |
| 2026-05-04 09:53 | 41.05594 | 22.35717 | 37120 ft | 486 kts | 138° |
| 2026-05-04 09:54 | 41.00304 | 22.41270 | 37125 ft | 487 kts | 138° |
| 2026-05-04 09:54 | 40.95029 | 22.46838 | 37127 ft | 486 kts | 138° |
| 2026-05-04 09:55 | 40.89778 | 22.52412 | 37128 ft | 485 kts | 138° |
| 2026-05-04 09:55 | 40.84564 | 22.57957 | 37073 ft | 470 kts | 138° |
| 2026-05-04 09:55 | 40.82034 | 22.60643 | 36790 ft | 462 kts | 137° |
| 2026-05-04 09:56 | 40.79522 | 22.63311 | 36318 ft | 458 kts | 137° |
| 2026-05-04 09:56 | 40.77047 | 22.65941 | 35749 ft | 457 kts | 138° |
| 2026-05-04 09:56 | 40.74575 | 22.68567 | 35282 ft | 454 kts | 138° |
| 2026-05-04 09:56 | 40.72127 | 22.71164 | 34847 ft | 451 kts | 138° |
| 2026-05-04 09:57 | 40.69692 | 22.73744 | 34363 ft | 450 kts | 137° |
| 2026-05-04 09:57 | 40.67257 | 22.76322 | 33877 ft | 448 kts | 138° |
| 2026-05-04 09:57 | 40.64837 | 22.78882 | 33390 ft | 446 kts | 137° |
| 2026-05-04 09:57 | 40.62430 | 22.81425 | 32907 ft | 444 kts | 137° |
| 2026-05-04 09:58 | 40.60034 | 22.83956 | 32419 ft | 442 kts | 137° |
| 2026-05-04 09:58 | 40.57649 | 22.86471 | 31935 ft | 439 kts | 137° |
| 2026-05-04 09:58 | 40.55277 | 22.88970 | 31452 ft | 437 kts | 137° |
| 2026-05-04 10:00 | 40.37700 | 23.03431 | 28015 ft | 423 kts | 157° |
| 2026-05-04 10:00 | 40.34942 | 23.04739 | 27533 ft | 420 kts | 158° |
| 2026-05-04 10:02 | 40.16331 | 23.13681 | 24110 ft | 395 kts | 156° |
| 2026-05-04 10:04 | 39.98936 | 23.22254 | 20804 ft | 369 kts | 157° |
| 2026-05-04 10:04 | 39.96542 | 23.23432 | 20339 ft | 366 kts | 157° |
| 2026-05-04 10:04 | 39.94172 | 23.24598 | 19884 ft | 362 kts | 157° |
| 2026-05-04 10:04 | 39.91828 | 23.25751 | 19435 ft | 359 kts | 157° |
| 2026-05-04 10:05 | 39.89506 | 23.26891 | 18987 ft | 356 kts | 157° |
| 2026-05-04 10:05 | 39.87201 | 23.28024 | 18528 ft | 352 kts | 157° |
| 2026-05-04 10:05 | 39.84920 | 23.29144 | 18088 ft | 349 kts | 157° |
| 2026-05-04 10:05 | 39.82663 | 23.30251 | 17645 ft | 345 kts | 157° |
| 2026-05-04 10:06 | 39.80428 | 23.31345 | 17212 ft | 342 kts | 157° |
| 2026-05-04 10:06 | 39.78213 | 23.32428 | 16788 ft | 339 kts | 157° |
| 2026-05-04 10:06 | 39.76018 | 23.33501 | 16341 ft | 335 kts | 157° |
| 2026-05-04 10:08 | 39.64001 | 23.39365 | 14047 ft | 318 kts | 157° |
| 2026-05-04 10:08 | 39.61921 | 23.40382 | 13638 ft | 318 kts | 157° |
| 2026-05-04 10:08 | 39.59875 | 23.41375 | 13247 ft | 311 kts | 157° |
| 2026-05-04 10:08 | 39.57880 | 23.42342 | 12860 ft | 303 kts | 157° |
| 2026-05-04 10:09 | 39.55926 | 23.43289 | 12483 ft | 297 kts | 157° |
| 2026-05-04 10:09 | 39.54013 | 23.44216 | 12115 ft | 294 kts | 157° |
| 2026-05-04 10:09 | 39.52054 | 23.45170 | 11743 ft | 308 kts | 157° |
| 2026-05-04 10:09 | 39.50041 | 23.46149 | 11346 ft | 308 kts | 158° |
| 2026-05-04 10:10 | 39.48058 | 23.47109 | 10963 ft | 301 kts | 157° |
| 2026-05-04 10:10 | 39.46119 | 23.48046 | 10593 ft | 293 kts | 158° |
| 2026-05-04 10:10 | 39.44226 | 23.48960 | 10230 ft | 287 kts | 158° |
| 2026-05-04 10:10 | 39.42389 | 23.49848 | 10015 ft | 275 kts | 158° |
| 2026-05-04 10:11 | 39.40586 | 23.50721 | 9673 ft | 286 kts | 158° |
| 2026-05-04 10:11 | 39.38693 | 23.51640 | 9238 ft | 293 kts | 158° |
| 2026-05-04 10:11 | 39.36782 | 23.52565 | 8645 ft | 296 kts | 158° |
| 2026-05-04 10:11 | 39.34808 | 23.53519 | 8105 ft | 310 kts | 158° |
| 2026-05-04 10:12 | 39.32796 | 23.54491 | 7541 ft | 307 kts | 159° |
| 2026-05-04 10:12 | 39.30810 | 23.55449 | 6986 ft | 304 kts | 159° |
| 2026-05-04 10:12 | 39.28845 | 23.56395 | 6413 ft | 299 kts | 159° |
| 2026-05-04 10:12 | 39.26923 | 23.57321 | 5865 ft | 293 kts | 159° |
| 2026-05-04 10:13 | 39.25035 | 23.58231 | 5316 ft | 288 kts | 159° |
| 2026-05-04 10:13 | 39.23176 | 23.59127 | 4771 ft | 283 kts | 159° |
| 2026-05-04 10:13 | 39.21347 | 23.60008 | 4224 ft | 279 kts | 159° |
| 2026-05-04 10:13 | 39.19552 | 23.60822 | 3975 ft | 264 kts | 164° |
| 2026-05-04 10:14 | 39.17812 | 23.61161 | 3991 ft | 245 kts | 185° |
| 2026-05-04 10:14 | 39.16245 | 23.60573 | 3992 ft | 227 kts | 210° |
| 2026-05-04 10:16 | 39.06672 | 23.54134 | 2578 ft | 203 kts | 208° |
| 2026-05-04 10:16 | 39.05436 | 23.53329 | 2323 ft | 195 kts | 208° |
| 2026-05-04 10:16 | 39.04244 | 23.52552 | 2072 ft | 189 kts | 208° |
| 2026-05-04 10:16 | 39.03083 | 23.51794 | 1819 ft | 186 kts | 209° |
| 2026-05-04 10:17 | 39.02073 | 23.50798 | 1609 ft | 183 kts | 239° |
| 2026-05-04 10:17 | 39.01842 | 23.49327 | 1546 ft | 166 kts | 288° |
| 2026-05-04 10:19 | 39.07992 | 23.46572 | 1589 ft | 134 kts | 6° |
| 2026-05-04 10:19 | 39.08927 | 23.46755 | 1453 ft | 136 kts | 8° |
| 2026-05-04 10:19 | 39.09855 | 23.47012 | 1312 ft | 135 kts | 12° |
| 2026-05-04 10:19 | 39.10767 | 23.47331 | 1212 ft | 136 kts | 14° |
| 2026-05-04 10:20 | 39.11678 | 23.47669 | 1177 ft | 135 kts | 14° |
| 2026-05-04 10:20 | 39.12574 | 23.48076 | 1101 ft | 138 kts | 17° |
| 2026-05-04 10:20 | 39.13476 | 23.48493 | 842 ft | 136 kts | 15° |
| 2026-05-04 10:20 | 39.14375 | 23.48856 | 702 ft | 138 kts | 17° |
| 2026-05-04 10:21 | 39.15277 | 23.49286 | 425 ft | 138 kts | 17° |
| 2026-05-04 10:21 | 39.16175 | 23.49679 | 183 ft | 134 kts | 16° |
| 2026-05-04 10:21 | 39.17067 | 23.50073 | 41 ft | 136 kts | 16° |
| 2026-05-04 10:21 | 39.17831 | 23.50410 | 61 ft | 75 kts | 19° |
| 2026-05-04 10:22 | 39.18364 | 23.50654 | 68 ft | 12 kts | 30° |
| 2026-05-04 10:22 | 39.18394 | 23.50661 | 68 ft | 1 kts | 223° |
| 2026-05-04 10:22 | 39.18349 | 23.50642 | 68 ft | 15 kts | 198° |
| 2026-05-04 10:23 | 39.18164 | 23.50559 | 71 ft | 36 kts | 198° |
| 2026-05-04 10:23 | 39.17964 | 23.50461 | 67 ft | 26 kts | 221° |
| 2026-05-04 10:25 | 39.17876 | 23.50212 | 63 ft | 0 kts | 289° |